sensor_id;sensor_type;location;lat;lon;timestamp;P1;durP1;ratioP1;P2;durP2;ratioP2
54937;SDS011;52756;52.826;6.214;2023-02-28T00:01:22;6.78;;;2.08;;
54937;SDS011;52756;52.826;6.214;2023-02-28T00:03:48;4.82;;;2.03;;
54937;SDS011;52756;52.826;6.214;2023-02-28T00:06:14;4.53;;;1.80;;
54937;SDS011;52756;52.826;6.214;2023-02-28T00:08:40;2.47;;;1.60;;
54937;SDS011;52756;52.826;6.214;2023-02-28T00:11:07;3.75;;;1.50;;
54937;SDS011;52756;52.826;6.214;2023-02-28T00:13:35;6.18;;;1.70;;
54937;SDS011;52756;52.826;6.214;2023-02-28T00:16:04;2.85;;;1.50;;
54937;SDS011;52756;52.826;6.214;2023-02-28T00:18:34;5.22;;;2.00;;
54937;SDS011;52756;52.826;6.214;2023-02-28T00:21:00;4.32;;;2.08;;
54937;SDS011;52756;52.826;6.214;2023-02-28T00:23:26;3.72;;;1.90;;
54937;SDS011;52756;52.826;6.214;2023-02-28T00:25:52;3.88;;;1.88;;
54937;SDS011;52756;52.826;6.214;2023-02-28T00:28:19;5.55;;;1.90;;
54937;SDS011;52756;52.826;6.214;2023-02-28T00:30:45;4.10;;;2.00;;
54937;SDS011;52756;52.826;6.214;2023-02-28T00:33:11;3.88;;;1.98;;
54937;SDS011;52756;52.826;6.214;2023-02-28T00:35:37;2.95;;;1.40;;
54937;SDS011;52756;52.826;6.214;2023-02-28T00:38:02;4.47;;;1.80;;
54937;SDS011;52756;52.826;6.214;2023-02-28T00:40:28;5.60;;;2.40;;
54937;SDS011;52756;52.826;6.214;2023-02-28T00:42:54;4.72;;;1.65;;
54937;SDS011;52756;52.826;6.214;2023-02-28T00:45:20;5.18;;;1.83;;
54937;SDS011;52756;52.826;6.214;2023-02-28T00:47:46;5.53;;;2.33;;
54937;SDS011;52756;52.826;6.214;2023-02-28T00:50:15;5.63;;;2.50;;
54937;SDS011;52756;52.826;6.214;2023-02-28T00:52:45;4.70;;;1.60;;
54937;SDS011;52756;52.826;6.214;2023-02-28T00:55:11;6.72;;;2.60;;
54937;SDS011;52756;52.826;6.214;2023-02-28T00:57:37;4.70;;;1.80;;
54937;SDS011;52756;52.826;6.214;2023-02-28T01:00:03;3.60;;;1.70;;
54937;SDS011;52756;52.826;6.214;2023-02-28T01:02:30;7.38;;;1.90;;
54937;SDS011;52756;52.826;6.214;2023-02-28T01:04:55;5.30;;;1.70;;
54937;SDS011;52756;52.826;6.214;2023-02-28T01:07:22;4.22;;;1.77;;
54937;SDS011;52756;52.826;6.214;2023-02-28T01:09:48;4.55;;;2.05;;
54937;SDS011;52756;52.826;6.214;2023-02-28T01:12:14;3.22;;;1.42;;
54937;SDS011;52756;52.826;6.214;2023-02-28T01:14:40;3.17;;;1.33;;
54937;SDS011;52756;52.826;6.214;2023-02-28T01:17:06;3.60;;;1.60;;
54937;SDS011;52756;52.826;6.214;2023-02-28T01:19:32;3.08;;;1.70;;
54937;SDS011;52756;52.826;6.214;2023-02-28T01:22:00;2.50;;;1.48;;
54937;SDS011;52756;52.826;6.214;2023-02-28T01:24:27;3.03;;;1.70;;
54937;SDS011;52756;52.826;6.214;2023-02-28T01:26:53;3.97;;;1.95;;
54937;SDS011;52756;52.826;6.214;2023-02-28T01:29:19;4.32;;;1.85;;
54937;SDS011;52756;52.826;6.214;2023-02-28T01:31:44;5.25;;;1.70;;
54937;SDS011;52756;52.826;6.214;2023-02-28T01:34:10;4.78;;;1.50;;
54937;SDS011;52756;52.826;6.214;2023-02-28T01:36:36;5.15;;;1.92;;
54937;SDS011;52756;52.826;6.214;2023-02-28T01:39:02;3.13;;;1.67;;
54937;SDS011;52756;52.826;6.214;2023-02-28T01:41:30;3.53;;;1.58;;
54937;SDS011;52756;52.826;6.214;2023-02-28T01:44:07;4.03;;;1.63;;
54937;SDS011;52756;52.826;6.214;2023-02-28T01:47:10;6.60;;;2.00;;
54937;SDS011;52756;52.826;6.214;2023-02-28T01:49:36;4.03;;;1.70;;
54937;SDS011;52756;52.826;6.214;2023-02-28T01:52:02;3.60;;;1.85;;
54937;SDS011;52756;52.826;6.214;2023-02-28T01:54:31;5.80;;;1.88;;
54937;SDS011;52756;52.826;6.214;2023-02-28T01:57:13;2.95;;;1.52;;
54937;SDS011;52756;52.826;6.214;2023-02-28T01:59:59;6.00;;;2.30;;
54937;SDS011;52756;52.826;6.214;2023-02-28T02:02:32;5.15;;;2.08;;
54937;SDS011;52756;52.826;6.214;2023-02-28T02:05:00;5.05;;;2.10;;
54937;SDS011;52756;52.826;6.214;2023-02-28T02:07:36;4.68;;;2.10;;
54937;SDS011;52756;52.826;6.214;2023-02-28T02:10:12;5.00;;;2.22;;
54937;SDS011;52756;52.826;6.214;2023-02-28T02:12:49;6.57;;;2.00;;
54937;SDS011;52756;52.826;6.214;2023-02-28T02:21:25;4.95;;;2.15;;
54937;SDS011;52756;52.826;6.214;2023-02-28T02:37:48;4.13;;;1.90;;
54937;SDS011;52756;52.826;6.214;2023-02-28T02:40:32;6.05;;;2.10;;
54937;SDS011;52756;52.826;6.214;2023-02-28T02:43:16;5.57;;;3.05;;
54937;SDS011;52756;52.826;6.214;2023-02-28T02:45:49;7.30;;;2.70;;
54937;SDS011;52756;52.826;6.214;2023-02-28T02:48:23;7.38;;;2.38;;
54937;SDS011;52756;52.826;6.214;2023-02-28T02:50:54;3.83;;;2.28;;
54937;SDS011;52756;52.826;6.214;2023-02-28T02:53:31;5.18;;;2.20;;
54937;SDS011;52756;52.826;6.214;2023-02-28T02:56:03;5.95;;;2.63;;
54937;SDS011;52756;52.826;6.214;2023-02-28T02:58:31;6.18;;;2.60;;
54937;SDS011;52756;52.826;6.214;2023-02-28T03:01:07;5.30;;;2.95;;
54937;SDS011;52756;52.826;6.214;2023-02-28T03:03:39;6.00;;;3.00;;
54937;SDS011;52756;52.826;6.214;2023-02-28T03:06:05;4.90;;;2.60;;
54937;SDS011;52756;52.826;6.214;2023-02-28T03:08:35;7.57;;;3.28;;
54937;SDS011;52756;52.826;6.214;2023-02-28T03:11:03;6.97;;;3.90;;
54937;SDS011;52756;52.826;6.214;2023-02-28T03:19:47;5.82;;;2.65;;
54937;SDS011;52756;52.826;6.214;2023-02-28T03:25:07;6.20;;;3.05;;
54937;SDS011;52756;52.826;6.214;2023-02-28T03:35:43;6.65;;;3.30;;
54937;SDS011;52756;52.826;6.214;2023-02-28T03:38:17;4.97;;;3.22;;
54937;SDS011;52756;52.826;6.214;2023-02-28T03:41:06;5.30;;;3.42;;
54937;SDS011;52756;52.826;6.214;2023-02-28T03:43:40;6.47;;;3.70;;
54937;SDS011;52756;52.826;6.214;2023-02-28T03:46:11;7.13;;;3.50;;
54937;SDS011;52756;52.826;6.214;2023-02-28T03:48:48;14.85;;;6.38;;
54937;SDS011;52756;52.826;6.214;2023-02-28T03:51:21;11.80;;;7.25;;
54937;SDS011;52756;52.826;6.214;2023-02-28T03:53:59;13.60;;;8.35;;
54937;SDS011;52756;52.826;6.214;2023-02-28T03:56:34;11.13;;;7.63;;
54937;SDS011;52756;52.826;6.214;2023-02-28T03:59:13;8.88;;;5.50;;
54937;SDS011;52756;52.826;6.214;2023-02-28T04:01:47;9.50;;;5.80;;
54937;SDS011;52756;52.826;6.214;2023-02-28T04:04:15;10.13;;;6.95;;
54937;SDS011;52756;52.826;6.214;2023-02-28T04:06:41;13.27;;;9.25;;
54937;SDS011;52756;52.826;6.214;2023-02-28T04:09:08;11.85;;;7.35;;
54937;SDS011;52756;52.826;6.214;2023-02-28T04:14:03;9.15;;;6.32;;
54937;SDS011;52756;52.826;6.214;2023-02-28T04:16:30;9.68;;;6.28;;
54937;SDS011;52756;52.826;6.214;2023-02-28T04:18:57;12.75;;;8.02;;
54937;SDS011;52756;52.826;6.214;2023-02-28T04:24:07;12.63;;;7.25;;
54937;SDS011;52756;52.826;6.214;2023-02-28T04:26:39;16.45;;;9.50;;
54937;SDS011;52756;52.826;6.214;2023-02-28T04:29:06;12.02;;;8.10;;
54937;SDS011;52756;52.826;6.214;2023-02-28T04:31:32;14.23;;;9.27;;
54937;SDS011;52756;52.826;6.214;2023-02-28T04:33:59;12.55;;;9.05;;
54937;SDS011;52756;52.826;6.214;2023-02-28T04:36:25;10.82;;;6.97;;
54937;SDS011;52756;52.826;6.214;2023-02-28T04:38:51;11.98;;;8.98;;
54937;SDS011;52756;52.826;6.214;2023-02-28T04:41:17;13.00;;;8.65;;
54937;SDS011;52756;52.826;6.214;2023-02-28T04:43:43;14.77;;;8.98;;
54937;SDS011;52756;52.826;6.214;2023-02-28T04:46:09;10.98;;;7.05;;
54937;SDS011;52756;52.826;6.214;2023-02-28T04:48:38;16.52;;;8.93;;
54937;SDS011;52756;52.826;6.214;2023-02-28T04:51:05;13.30;;;8.55;;
54937;SDS011;52756;52.826;6.214;2023-02-28T04:53:36;11.50;;;6.85;;
54937;SDS011;52756;52.826;6.214;2023-02-28T04:56:03;11.52;;;8.00;;
54937;SDS011;52756;52.826;6.214;2023-02-28T04:58:29;12.63;;;8.02;;
54937;SDS011;52756;52.826;6.214;2023-02-28T05:01:00;12.02;;;8.25;;
54937;SDS011;52756;52.826;6.214;2023-02-28T05:03:38;9.70;;;7.57;;
54937;SDS011;52756;52.826;6.214;2023-02-28T05:06:05;13.02;;;8.70;;
54937;SDS011;52756;52.826;6.214;2023-02-28T05:08:32;18.88;;;8.45;;
54937;SDS011;52756;52.826;6.214;2023-02-28T05:10:58;11.38;;;8.48;;
54937;SDS011;52756;52.826;6.214;2023-02-28T05:13:26;11.32;;;7.32;;
54937;SDS011;52756;52.826;6.214;2023-02-28T05:15:52;12.27;;;8.20;;
54937;SDS011;52756;52.826;6.214;2023-02-28T05:18:18;10.52;;;7.25;;
54937;SDS011;52756;52.826;6.214;2023-02-28T05:20:43;11.02;;;7.82;;
54937;SDS011;52756;52.826;6.214;2023-02-28T05:23:12;11.75;;;7.90;;
54937;SDS011;52756;52.826;6.214;2023-02-28T05:25:39;11.50;;;8.07;;
54937;SDS011;52756;52.826;6.214;2023-02-28T05:28:05;9.95;;;7.15;;
54937;SDS011;52756;52.826;6.214;2023-02-28T05:30:32;11.80;;;7.97;;
54937;SDS011;52756;52.826;6.214;2023-02-28T05:32:58;9.80;;;7.15;;
54937;SDS011;52756;52.826;6.214;2023-02-28T05:35:24;11.55;;;8.45;;
54937;SDS011;52756;52.826;6.214;2023-02-28T05:37:50;8.60;;;7.00;;
54937;SDS011;52756;52.826;6.214;2023-02-28T05:40:16;14.23;;;8.88;;
54937;SDS011;52756;52.826;6.214;2023-02-28T05:42:42;13.02;;;8.23;;
54937;SDS011;52756;52.826;6.214;2023-02-28T05:45:08;13.10;;;8.73;;
54937;SDS011;52756;52.826;6.214;2023-02-28T05:47:34;14.20;;;8.88;;
54937;SDS011;52756;52.826;6.214;2023-02-28T05:50:00;13.20;;;9.23;;
54937;SDS011;52756;52.826;6.214;2023-02-28T05:52:26;11.15;;;7.88;;
54937;SDS011;52756;52.826;6.214;2023-02-28T05:54:53;9.88;;;7.82;;
54937;SDS011;52756;52.826;6.214;2023-02-28T05:57:18;12.45;;;8.45;;
54937;SDS011;52756;52.826;6.214;2023-02-28T05:59:44;11.75;;;8.80;;
54937;SDS011;52756;52.826;6.214;2023-02-28T06:02:14;11.18;;;7.75;;
54937;SDS011;52756;52.826;6.214;2023-02-28T06:04:41;11.27;;;7.75;;
54937;SDS011;52756;52.826;6.214;2023-02-28T06:07:08;12.75;;;8.13;;
54937;SDS011;52756;52.826;6.214;2023-02-28T06:09:34;11.63;;;8.07;;
54937;SDS011;52756;52.826;6.214;2023-02-28T06:12:00;12.93;;;8.23;;
54937;SDS011;52756;52.826;6.214;2023-02-28T06:14:28;11.82;;;9.00;;
54937;SDS011;52756;52.826;6.214;2023-02-28T06:16:56;13.70;;;10.27;;
54937;SDS011;52756;52.826;6.214;2023-02-28T06:19:22;12.48;;;9.20;;
54937;SDS011;52756;52.826;6.214;2023-02-28T06:21:50;12.70;;;9.10;;
54937;SDS011;52756;52.826;6.214;2023-02-28T06:24:23;13.52;;;9.18;;
54937;SDS011;52756;52.826;6.214;2023-02-28T06:26:52;11.82;;;9.70;;
54937;SDS011;52756;52.826;6.214;2023-02-28T06:29:18;11.35;;;8.50;;
54937;SDS011;52756;52.826;6.214;2023-02-28T06:31:45;12.73;;;8.30;;
54937;SDS011;52756;52.826;6.214;2023-02-28T06:34:11;12.30;;;8.60;;
54937;SDS011;52756;52.826;6.214;2023-02-28T06:36:39;13.88;;;8.70;;
54937;SDS011;52756;52.826;6.214;2023-02-28T06:39:05;11.77;;;8.40;;
54937;SDS011;52756;52.826;6.214;2023-02-28T06:41:31;15.00;;;9.70;;
54937;SDS011;52756;52.826;6.214;2023-02-28T06:43:56;12.32;;;9.13;;
54937;SDS011;52756;52.826;6.214;2023-02-28T06:46:22;12.57;;;8.77;;
54937;SDS011;52756;52.826;6.214;2023-02-28T06:48:48;13.00;;;8.55;;
54937;SDS011;52756;52.826;6.214;2023-02-28T06:51:18;13.55;;;9.35;;
54937;SDS011;52756;52.826;6.214;2023-02-28T06:53:47;13.38;;;9.68;;
54937;SDS011;52756;52.826;6.214;2023-02-28T06:56:13;11.98;;;8.90;;
54937;SDS011;52756;52.826;6.214;2023-02-28T06:58:40;13.80;;;9.65;;
54937;SDS011;52756;52.826;6.214;2023-02-28T07:01:06;16.13;;;10.13;;
54937;SDS011;52756;52.826;6.214;2023-02-28T07:03:34;12.88;;;8.73;;
54937;SDS011;52756;52.826;6.214;2023-02-28T07:06:01;13.38;;;9.73;;
54937;SDS011;52756;52.826;6.214;2023-02-28T07:08:27;12.57;;;9.48;;
54937;SDS011;52756;52.826;6.214;2023-02-28T07:10:54;17.73;;;11.80;;
54937;SDS011;52756;52.826;6.214;2023-02-28T07:13:20;16.52;;;11.60;;
54937;SDS011;52756;52.826;6.214;2023-02-28T07:15:56;13.23;;;10.25;;
54937;SDS011;52756;52.826;6.214;2023-02-28T07:18:26;13.75;;;10.70;;
54937;SDS011;52756;52.826;6.214;2023-02-28T07:20:52;13.70;;;10.18;;
54937;SDS011;52756;52.826;6.214;2023-02-28T07:23:18;15.30;;;10.77;;
54937;SDS011;52756;52.826;6.214;2023-02-28T07:25:44;14.40;;;11.10;;
54937;SDS011;52756;52.826;6.214;2023-02-28T07:28:11;15.77;;;11.52;;
54937;SDS011;52756;52.826;6.214;2023-02-28T07:30:37;16.30;;;11.60;;
54937;SDS011;52756;52.826;6.214;2023-02-28T07:33:03;14.60;;;9.80;;
54937;SDS011;52756;52.826;6.214;2023-02-28T07:35:28;13.75;;;9.73;;
54937;SDS011;52756;52.826;6.214;2023-02-28T07:37:54;15.38;;;11.07;;
54937;SDS011;52756;52.826;6.214;2023-02-28T07:40:21;12.18;;;9.57;;
54937;SDS011;52756;52.826;6.214;2023-02-28T07:42:47;16.10;;;10.00;;
54937;SDS011;52756;52.826;6.214;2023-02-28T07:45:13;13.35;;;10.05;;
54937;SDS011;52756;52.826;6.214;2023-02-28T07:47:39;13.07;;;9.55;;
54937;SDS011;52756;52.826;6.214;2023-02-28T07:50:06;14.98;;;10.00;;
54937;SDS011;52756;52.826;6.214;2023-02-28T07:52:34;14.93;;;9.05;;
54937;SDS011;52756;52.826;6.214;2023-02-28T07:55:01;13.80;;;9.98;;
54937;SDS011;52756;52.826;6.214;2023-02-28T07:57:28;12.98;;;9.55;;
54937;SDS011;52756;52.826;6.214;2023-02-28T07:59:53;14.52;;;9.35;;
54937;SDS011;52756;52.826;6.214;2023-02-28T08:02:19;12.35;;;8.90;;
54937;SDS011;52756;52.826;6.214;2023-02-28T08:04:45;9.88;;;8.00;;
54937;SDS011;52756;52.826;6.214;2023-02-28T08:07:14;11.00;;;7.95;;
54937;SDS011;52756;52.826;6.214;2023-02-28T08:09:41;10.98;;;8.27;;
54937;SDS011;52756;52.826;6.214;2023-02-28T08:12:07;11.00;;;7.97;;
54937;SDS011;52756;52.826;6.214;2023-02-28T08:14:34;10.25;;;7.07;;
54937;SDS011;52756;52.826;6.214;2023-02-28T08:17:00;12.05;;;7.50;;
54937;SDS011;52756;52.826;6.214;2023-02-28T08:19:26;8.77;;;5.85;;
54937;SDS011;52756;52.826;6.214;2023-02-28T08:21:52;10.50;;;6.70;;
54937;SDS011;52756;52.826;6.214;2023-02-28T08:24:18;10.63;;;7.70;;
54937;SDS011;52756;52.826;6.214;2023-02-28T08:26:43;8.95;;;6.95;;
54937;SDS011;52756;52.826;6.214;2023-02-28T08:29:09;9.00;;;7.13;;
54937;SDS011;52756;52.826;6.214;2023-02-28T08:31:35;9.77;;;6.60;;
54937;SDS011;52756;52.826;6.214;2023-02-28T08:34:05;9.38;;;6.47;;
54937;SDS011;52756;52.826;6.214;2023-02-28T08:36:31;9.57;;;6.50;;
54937;SDS011;52756;52.826;6.214;2023-02-28T08:38:57;9.25;;;6.30;;
54937;SDS011;52756;52.826;6.214;2023-02-28T08:41:24;10.02;;;5.93;;
54937;SDS011;52756;52.826;6.214;2023-02-28T08:43:50;9.48;;;6.72;;
54937;SDS011;52756;52.826;6.214;2023-02-28T08:46:16;10.02;;;6.82;;
54937;SDS011;52756;52.826;6.214;2023-02-28T08:48:42;10.23;;;6.53;;
54937;SDS011;52756;52.826;6.214;2023-02-28T08:51:10;7.45;;;6.45;;
54937;SDS011;52756;52.826;6.214;2023-02-28T08:53:43;9.15;;;6.63;;
54937;SDS011;52756;52.826;6.214;2023-02-28T08:56:11;9.55;;;6.93;;
54937;SDS011;52756;52.826;6.214;2023-02-28T08:58:38;7.70;;;6.00;;
54937;SDS011;52756;52.826;6.214;2023-02-28T09:01:14;9.10;;;6.68;;
54937;SDS011;52756;52.826;6.214;2023-02-28T09:03:45;11.38;;;7.63;;
54937;SDS011;52756;52.826;6.214;2023-02-28T09:06:12;11.00;;;8.02;;
54937;SDS011;52756;52.826;6.214;2023-02-28T09:08:39;14.02;;;9.00;;
54937;SDS011;52756;52.826;6.214;2023-02-28T09:11:05;13.63;;;9.43;;
54937;SDS011;52756;52.826;6.214;2023-02-28T09:13:32;13.10;;;8.77;;
54937;SDS011;52756;52.826;6.214;2023-02-28T09:15:58;13.55;;;8.93;;
54937;SDS011;52756;52.826;6.214;2023-02-28T09:18:25;11.93;;;8.52;;
54937;SDS011;52756;52.826;6.214;2023-02-28T09:20:51;12.18;;;9.32;;
54937;SDS011;52756;52.826;6.214;2023-02-28T09:23:17;13.90;;;8.13;;
54937;SDS011;52756;52.826;6.214;2023-02-28T09:25:47;10.73;;;8.70;;
54937;SDS011;52756;52.826;6.214;2023-02-28T09:28:14;9.80;;;7.68;;
54937;SDS011;52756;52.826;6.214;2023-02-28T09:30:47;9.43;;;8.07;;
54937;SDS011;52756;52.826;6.214;2023-02-28T09:33:15;11.35;;;8.57;;
54937;SDS011;52756;52.826;6.214;2023-02-28T09:35:42;12.50;;;8.60;;
54937;SDS011;52756;52.826;6.214;2023-02-28T09:38:08;14.25;;;9.00;;
54937;SDS011;52756;52.826;6.214;2023-02-28T09:40:36;10.30;;;8.38;;
54937;SDS011;52756;52.826;6.214;2023-02-28T09:43:09;10.45;;;7.57;;
54937;SDS011;52756;52.826;6.214;2023-02-28T09:45:39;13.75;;;9.43;;
54937;SDS011;52756;52.826;6.214;2023-02-28T09:48:12;11.88;;;9.13;;
54937;SDS011;52756;52.826;6.214;2023-02-28T09:50:45;10.32;;;8.18;;
54937;SDS011;52756;52.826;6.214;2023-02-28T09:53:28;12.68;;;9.35;;
54937;SDS011;52756;52.826;6.214;2023-02-28T09:55:59;11.95;;;8.57;;
54937;SDS011;52756;52.826;6.214;2023-02-28T09:58:44;11.65;;;8.00;;
54937;SDS011;52756;52.826;6.214;2023-02-28T10:07:11;10.27;;;6.75;;
54937;SDS011;52756;52.826;6.214;2023-02-28T10:09:49;8.55;;;6.35;;
54937;SDS011;52756;52.826;6.214;2023-02-28T10:12:18;9.30;;;6.00;;
54937;SDS011;52756;52.826;6.214;2023-02-28T10:14:46;7.07;;;4.85;;
54937;SDS011;52756;52.826;6.214;2023-02-28T10:17:38;6.35;;;3.30;;
54937;SDS011;52756;52.826;6.214;2023-02-28T10:20:09;6.15;;;3.92;;
54937;SDS011;52756;52.826;6.214;2023-02-28T10:25:36;4.90;;;3.80;;
54937;SDS011;52756;52.826;6.214;2023-02-28T10:28:12;9.00;;;4.15;;
54937;SDS011;52756;52.826;6.214;2023-02-28T10:30:44;4.57;;;3.10;;
54937;SDS011;52756;52.826;6.214;2023-02-28T10:35:53;6.32;;;2.90;;
54937;SDS011;52756;52.826;6.214;2023-02-28T10:38:23;5.30;;;3.05;;
54937;SDS011;52756;52.826;6.214;2023-02-28T10:40:51;6.82;;;4.13;;
54937;SDS011;52756;52.826;6.214;2023-02-28T10:43:29;5.43;;;2.90;;
54937;SDS011;52756;52.826;6.214;2023-02-28T10:45:56;4.88;;;3.45;;
54937;SDS011;52756;52.826;6.214;2023-02-28T10:50:54;6.18;;;3.75;;
54937;SDS011;52756;52.826;6.214;2023-02-28T10:58:55;4.53;;;3.42;;
54937;SDS011;52756;52.826;6.214;2023-02-28T11:04:16;4.07;;;3.00;;
54937;SDS011;52756;52.826;6.214;2023-02-28T11:06:46;5.32;;;3.08;;
54937;SDS011;52756;52.826;6.214;2023-02-28T11:09:24;5.57;;;3.17;;
54937;SDS011;52756;52.826;6.214;2023-02-28T11:12:00;5.07;;;3.75;;
54937;SDS011;52756;52.826;6.214;2023-02-28T11:14:29;4.10;;;3.13;;
54937;SDS011;52756;52.826;6.214;2023-02-28T11:17:00;6.18;;;3.80;;
54937;SDS011;52756;52.826;6.214;2023-02-28T11:19:39;4.55;;;3.33;;
54937;SDS011;52756;52.826;6.214;2023-02-28T11:22:09;4.97;;;3.22;;
54937;SDS011;52756;52.826;6.214;2023-02-28T11:24:43;5.25;;;3.70;;
54937;SDS011;52756;52.826;6.214;2023-02-28T11:27:56;6.03;;;3.95;;
54937;SDS011;52756;52.826;6.214;2023-02-28T11:30:25;6.45;;;3.53;;
54937;SDS011;52756;52.826;6.214;2023-02-28T11:32:51;6.13;;;3.80;;
54937;SDS011;52756;52.826;6.214;2023-02-28T11:35:17;5.45;;;3.53;;
54937;SDS011;52756;52.826;6.214;2023-02-28T11:38:11;5.13;;;3.58;;
54937;SDS011;52756;52.826;6.214;2023-02-28T11:40:41;4.88;;;3.20;;
54937;SDS011;52756;52.826;6.214;2023-02-28T11:48:20;6.10;;;3.67;;
54937;SDS011;52756;52.826;6.214;2023-02-28T11:59:02;6.82;;;4.13;;
54937;SDS011;52756;52.826;6.214;2023-02-28T12:08:15;5.13;;;3.28;;
54937;SDS011;52756;52.826;6.214;2023-02-28T12:10:23;8.15;;;3.25;;
54937;SDS011;52756;52.826;6.214;2023-02-28T12:26:51;4.57;;;3.17;;
54937;SDS011;52756;52.826;6.214;2023-02-28T12:34:32;4.65;;;3.08;;
54937;SDS011;52756;52.826;6.214;2023-02-28T12:37:04;7.22;;;3.80;;
54937;SDS011;52756;52.826;6.214;2023-02-28T12:39:56;4.55;;;3.35;;
54937;SDS011;52756;52.826;6.214;2023-02-28T12:42:31;5.95;;;3.67;;
54937;SDS011;52756;52.826;6.214;2023-02-28T12:45:02;4.63;;;3.38;;
54937;SDS011;52756;52.826;6.214;2023-02-28T12:47:35;5.50;;;2.80;;
54937;SDS011;52756;52.826;6.214;2023-02-28T12:50:08;5.43;;;2.60;;
54937;SDS011;52756;52.826;6.214;2023-02-28T12:52:54;4.05;;;2.70;;
54937;SDS011;52756;52.826;6.214;2023-02-28T12:55:35;5.93;;;3.08;;
54937;SDS011;52756;52.826;6.214;2023-02-28T13:09:14;5.07;;;2.90;;
54937;SDS011;52756;52.826;6.214;2023-02-28T13:11:48;5.90;;;2.78;;
54937;SDS011;52756;52.826;6.214;2023-02-28T13:19:34;4.40;;;2.30;;
54937;SDS011;52756;52.826;6.214;2023-02-28T13:22:03;4.72;;;2.83;;
54937;SDS011;52756;52.826;6.214;2023-02-28T13:24:37;3.67;;;2.20;;
54937;SDS011;52756;52.826;6.214;2023-02-28T13:29:40;6.78;;;2.95;;
54937;SDS011;52756;52.826;6.214;2023-02-28T13:34:36;6.13;;;2.63;;
54937;SDS011;52756;52.826;6.214;2023-02-28T13:55:44;4.72;;;3.05;;
54937;SDS011;52756;52.826;6.214;2023-02-28T13:58:22;3.67;;;2.65;;
54937;SDS011;52756;52.826;6.214;2023-02-28T14:01:11;5.70;;;3.03;;
54937;SDS011;52756;52.826;6.214;2023-02-28T14:03:51;4.65;;;3.10;;
54937;SDS011;52756;52.826;6.214;2023-02-28T14:06:38;5.45;;;2.95;;
54937;SDS011;52756;52.826;6.214;2023-02-28T14:15:02;7.88;;;3.17;;
54937;SDS011;52756;52.826;6.214;2023-02-28T14:17:51;5.53;;;3.50;;
54937;SDS011;52756;52.826;6.214;2023-02-28T14:20:21;5.25;;;3.85;;
54937;SDS011;52756;52.826;6.214;2023-02-28T14:38:59;6.18;;;3.58;;
54937;SDS011;52756;52.826;6.214;2023-02-28T14:41:37;5.90;;;3.40;;
54937;SDS011;52756;52.826;6.214;2023-02-28T14:46:48;5.07;;;3.00;;
54937;SDS011;52756;52.826;6.214;2023-02-28T14:49:20;4.63;;;2.60;;
54937;SDS011;52756;52.826;6.214;2023-02-28T14:51:50;4.97;;;2.72;;
54937;SDS011;52756;52.826;6.214;2023-02-28T14:54:30;4.55;;;3.08;;
54937;SDS011;52756;52.826;6.214;2023-02-28T14:56:56;4.90;;;2.92;;
54937;SDS011;52756;52.826;6.214;2023-02-28T14:59:31;6.45;;;3.40;;
54937;SDS011;52756;52.826;6.214;2023-02-28T15:04:52;7.05;;;3.45;;
54937;SDS011;52756;52.826;6.214;2023-02-28T15:07:37;7.15;;;3.70;;
54937;SDS011;52756;52.826;6.214;2023-02-28T15:10:13;5.25;;;3.40;;
54937;SDS011;52756;52.826;6.214;2023-02-28T15:12:45;4.85;;;3.80;;
54937;SDS011;52756;52.826;6.214;2023-02-28T15:15:16;6.28;;;3.70;;
54937;SDS011;52756;52.826;6.214;2023-02-28T15:18:01;5.97;;;3.72;;
54937;SDS011;52756;52.826;6.214;2023-02-28T15:20:31;5.90;;;3.20;;
54937;SDS011;52756;52.826;6.214;2023-02-28T15:22:58;4.63;;;2.78;;
54937;SDS011;52756;52.826;6.214;2023-02-28T15:25:24;5.43;;;3.42;;
54937;SDS011;52756;52.826;6.214;2023-02-28T15:27:52;4.97;;;3.88;;
54937;SDS011;52756;52.826;6.214;2023-02-28T15:30:25;7.20;;;3.70;;
54937;SDS011;52756;52.826;6.214;2023-02-28T15:33:05;6.03;;;4.07;;
54937;SDS011;52756;52.826;6.214;2023-02-28T15:35:43;6.28;;;3.65;;
54937;SDS011;52756;52.826;6.214;2023-02-28T15:38:26;5.53;;;3.95;;
54937;SDS011;52756;52.826;6.214;2023-02-28T15:40:56;7.18;;;4.35;;
54937;SDS011;52756;52.826;6.214;2023-02-28T15:43:33;5.85;;;3.97;;
54937;SDS011;52756;52.826;6.214;2023-02-28T15:46:06;5.97;;;4.22;;
54937;SDS011;52756;52.826;6.214;2023-02-28T15:48:56;6.53;;;4.22;;
54937;SDS011;52756;52.826;6.214;2023-02-28T15:51:36;5.22;;;3.75;;
54937;SDS011;52756;52.826;6.214;2023-02-28T15:56:40;5.32;;;3.75;;
54937;SDS011;52756;52.826;6.214;2023-02-28T15:59:15;4.60;;;3.60;;
54937;SDS011;52756;52.826;6.214;2023-02-28T16:01:46;5.50;;;4.45;;
54937;SDS011;52756;52.826;6.214;2023-02-28T16:06:43;7.50;;;4.38;;
54937;SDS011;52756;52.826;6.214;2023-02-28T16:09:11;5.90;;;4.32;;
54937;SDS011;52756;52.826;6.214;2023-02-28T16:11:45;6.20;;;4.60;;
54937;SDS011;52756;52.826;6.214;2023-02-28T16:14:18;6.20;;;3.55;;
54937;SDS011;52756;52.826;6.214;2023-02-28T16:16:52;5.18;;;3.65;;
54937;SDS011;52756;52.826;6.214;2023-02-28T16:19:21;8.57;;;4.70;;
54937;SDS011;52756;52.826;6.214;2023-02-28T16:21:49;5.63;;;3.67;;
54937;SDS011;52756;52.826;6.214;2023-02-28T16:24:14;5.50;;;3.92;;
54937;SDS011;52756;52.826;6.214;2023-02-28T16:26:40;5.13;;;3.60;;
54937;SDS011;52756;52.826;6.214;2023-02-28T16:29:12;4.95;;;3.72;;
54937;SDS011;52756;52.826;6.214;2023-02-28T16:31:43;6.15;;;3.92;;
54937;SDS011;52756;52.826;6.214;2023-02-28T16:34:09;6.13;;;3.80;;
54937;SDS011;52756;52.826;6.214;2023-02-28T16:36:34;5.15;;;3.63;;
54937;SDS011;52756;52.826;6.214;2023-02-28T16:39:00;6.75;;;4.32;;
54937;SDS011;52756;52.826;6.214;2023-02-28T16:41:27;6.40;;;4.00;;
54937;SDS011;52756;52.826;6.214;2023-02-28T16:43:54;6.07;;;4.40;;
54937;SDS011;52756;52.826;6.214;2023-02-28T16:46:33;5.50;;;4.07;;
54937;SDS011;52756;52.826;6.214;2023-02-28T16:48:59;5.10;;;3.78;;
54937;SDS011;52756;52.826;6.214;2023-02-28T16:51:25;4.72;;;3.45;;
54937;SDS011;52756;52.826;6.214;2023-02-28T16:53:51;5.78;;;3.60;;
54937;SDS011;52756;52.826;6.214;2023-02-28T16:56:18;6.90;;;3.92;;
54937;SDS011;52756;52.826;6.214;2023-02-28T16:58:46;5.20;;;3.65;;
54937;SDS011;52756;52.826;6.214;2023-02-28T17:01:13;5.18;;;3.15;;
54937;SDS011;52756;52.826;6.214;2023-02-28T17:58:51;19.50;;;15.05;;
54937;SDS011;52756;52.826;6.214;2023-02-28T18:01:18;14.73;;;10.85;;
54937;SDS011;52756;52.826;6.214;2023-02-28T18:03:45;11.57;;;9.48;;
54937;SDS011;52756;52.826;6.214;2023-02-28T18:08:49;7.65;;;6.38;;
54937;SDS011;52756;52.826;6.214;2023-02-28T18:11:16;9.90;;;6.82;;
54937;SDS011;52756;52.826;6.214;2023-02-28T18:13:44;8.57;;;7.32;;
54937;SDS011;52756;52.826;6.214;2023-02-28T18:16:14;9.77;;;7.45;;
54937;SDS011;52756;52.826;6.214;2023-02-28T18:18:41;9.15;;;6.90;;
54937;SDS011;52756;52.826;6.214;2023-02-28T18:21:07;8.30;;;7.13;;
54937;SDS011;52756;52.826;6.214;2023-02-28T18:23:34;9.30;;;6.78;;
54937;SDS011;52756;52.826;6.214;2023-02-28T18:26:01;7.53;;;5.28;;
54937;SDS011;52756;52.826;6.214;2023-02-28T18:28:30;8.95;;;5.60;;
54937;SDS011;52756;52.826;6.214;2023-02-28T18:31:04;6.63;;;4.63;;
54937;SDS011;52756;52.826;6.214;2023-02-28T18:33:30;7.60;;;4.80;;
54937;SDS011;52756;52.826;6.214;2023-02-28T18:35:56;6.00;;;5.03;;
54937;SDS011;52756;52.826;6.214;2023-02-28T18:38:22;7.22;;;5.07;;
54937;SDS011;52756;52.826;6.214;2023-02-28T18:40:58;7.60;;;5.10;;
54937;SDS011;52756;52.826;6.214;2023-02-28T18:43:25;5.03;;;4.20;;
54937;SDS011;52756;52.826;6.214;2023-02-28T18:45:51;5.15;;;4.20;;
54937;SDS011;52756;52.826;6.214;2023-02-28T18:48:17;8.23;;;4.40;;
54937;SDS011;52756;52.826;6.214;2023-02-28T18:50:44;7.57;;;4.70;;
54937;SDS011;52756;52.826;6.214;2023-02-28T18:53:10;6.45;;;5.10;;